Time;durP1;ratioP1;P1;durP2;ratioP2;P2;SDS_P1;SDS_P2;PMS_P1;PMS_P2;Temp;Humidity;BMP_temperature;BMP_pressure;BME280_temperature;BME280_humidity;BME280_pressure;Samples;Min_cycle;Max_cycle;Signal;HPM_P1;HPM_P2
2021/09/11 00:00:48;;;;;;;9.02;6.82;;;21.20;87.00;;;;;;5095716;28;20029;-59
2021/09/11 00:03:13;;;;;;;12.30;6.30;;;21.20;87.00;;;;;;5085457;28;20043;-60
2021/09/11 00:05:39;;;;;;;9.82;6.93;;;21.20;87.00;;;;;;5070708;28;20052;-60
2021/09/11 00:08:04;;;;;;;10.23;6.43;;;21.20;87.00;;;;;;5062411;28;20503;-60
2021/09/11 00:10:30;;;;;;;9.00;6.57;;;21.20;87.10;;;;;;5083542;28;20028;-60
2021/09/11 00:12:56;;;;;;;7.60;6.88;;;21.10;87.00;;;;;;5069783;28;20036;-60
2021/09/11 00:15:22;;;;;;;12.90;6.85;;;21.10;87.00;;;;;;5073373;28;20044;-61
2021/09/11 00:17:48;;;;;;;9.00;6.30;;;21.10;87.00;;;;;;5069598;28;20036;-60
2021/09/11 00:20:13;;;;;;;11.07;6.63;;;21.10;87.10;;;;;;5059028;28;20048;-63
2021/09/11 00:22:39;;;;;;;9.60;6.85;;;21.10;87.10;;;;;;5075714;28;20105;-62
2021/09/11 00:25:05;;;;;;;7.35;6.57;;;21.10;87.20;;;;;;5062907;28;20086;-63
2021/09/11 00:27:30;;;;;;;9.25;6.80;;;21.10;87.20;;;;;;5085226;28;20043;-63
2021/09/11 00:29:56;;;;;;;11.25;7.90;;;21.00;87.20;;;;;;5063878;28;20024;-63
2021/09/11 00:32:21;;;;;;;8.77;7.07;;;21.00;87.20;;;;;;5075565;28;20040;-63
2021/09/11 00:34:47;;;;;;;8.02;7.03;;;21.00;87.30;;;;;;5087350;28;20035;-62
2021/09/11 00:37:12;;;;;;;8.55;6.90;;;21.00;87.30;;;;;;5079425;28;20460;-63
2021/09/11 00:39:38;;;;;;;7.65;6.65;;;21.00;87.40;;;;;;5067758;28;20372;-63
2021/09/11 00:42:04;;;;;;;7.70;6.97;;;20.90;87.30;;;;;;5076669;28;20028;-63
2021/09/11 00:44:29;;;;;;;11.18;6.95;;;20.90;87.40;;;;;;5080509;28;20032;-63
2021/09/11 00:46:55;;;;;;;7.75;6.97;;;20.90;87.40;;;;;;5083068;28;20158;-63
2021/09/11 00:49:20;;;;;;;10.73;6.72;;;20.90;87.40;;;;;;5083224;28;20052;-62
2021/09/11 00:51:46;;;;;;;8.18;6.60;;;20.90;87.50;;;;;;5077680;28;20124;-63
2021/09/11 00:54:12;;;;;;;8.93;7.20;;;20.90;87.40;;;;;;5080931;28;20032;-63
2021/09/11 00:56:37;;;;;;;9.20;6.90;;;20.90;88.10;;;;;;5085918;28;20491;-60
2021/09/11 00:59:03;;;;;;;7.72;6.40;;;20.80;87.50;;;;;;5080108;28;20060;-60
2021/09/11 01:01:28;;;;;;;7.22;6.38;;;20.80;87.50;;;;;;5092454;28;20048;-60
2021/09/11 01:03:54;;;;;;;11.63;7.28;;;20.80;87.50;;;;;;5079828;28;20468;-60
2021/09/11 01:06:20;;;;;;;10.18;7.22;;;20.80;87.60;;;;;;5078943;28;20047;-60
2021/09/11 01:08:45;;;;;;;11.95;6.68;;;20.80;87.60;;;;;;5081049;28;20103;-60
2021/09/11 01:11:11;;;;;;;9.02;6.10;;;20.80;87.70;;;;;;5077656;28;20024;-60
2021/09/11 01:13:37;;;;;;;11.98;6.07;;;20.80;87.80;;;;;;5084708;28;20020;-60
2021/09/11 01:16:03;;;;;;;8.93;6.72;;;20.80;87.80;;;;;;5085887;28;20028;-60
2021/09/11 01:18:29;;;;;;;9.52;6.47;;;20.80;87.80;;;;;;5084900;28;20043;-60
2021/09/11 01:20:54;;;;;;;7.05;6.35;;;20.80;87.90;;;;;;5083464;28;20098;-60
2021/09/11 01:23:20;;;;;;;8.40;6.60;;;20.70;88.20;;;;;;5060688;28;20044;-60
2021/09/11 01:25:46;;;;;;;10.60;6.80;;;20.70;88.00;;;;;;5076203;28;20031;-60
2021/09/11 01:28:12;;;;;;;10.27;7.75;;;20.70;88.10;;;;;;5083557;28;20032;-60
2021/09/11 01:30:37;;;;;;;10.35;8.07;;;20.70;88.20;;;;;;5085408;28;20046;-60
2021/09/11 01:33:03;;;;;;;9.45;7.70;;;20.70;88.30;;;;;;5083095;28;20046;-59
2021/09/11 01:35:28;;;;;;;9.48;7.63;;;20.70;88.30;;;;;;5080568;28;20096;-60
2021/09/11 01:37:54;;;;;;;10.07;7.20;;;20.60;88.30;;;;;;5079585;28;20039;-60
2021/09/11 01:40:21;;;;;;;13.63;7.80;;;20.60;88.30;;;;;;5078662;28;20047;-60
2021/09/11 01:42:46;;;;;;;10.40;7.63;;;20.60;88.20;;;;;;5077128;28;20120;-60
2021/09/11 01:45:13;;;;;;;11.40;7.18;;;20.60;88.30;;;;;;5085396;28;20103;-60
2021/09/11 01:47:39;;;;;;;16.48;7.30;;;20.60;88.30;;;;;;5080763;28;20095;-60
2021/09/11 01:50:05;;;;;;;14.52;7.03;;;20.60;88.20;;;;;;5085456;28;20111;-60
2021/09/11 01:52:31;;;;;;;11.75;6.97;;;20.60;88.30;;;;;;5061694;28;20028;-60
2021/09/11 01:54:56;;;;;;;9.75;6.78;;;20.60;88.20;;;;;;5084777;28;20039;-60
2021/09/11 01:57:22;;;;;;;8.35;6.90;;;20.60;88.20;;;;;;5082503;28;20032;-60
2021/09/11 01:59:47;;;;;;;10.10;6.55;;;20.60;88.30;;;;;;5067985;28;20015;-60
2021/09/11 02:02:13;;;;;;;10.80;7.03;;;20.60;88.30;;;;;;5066634;28;20419;-60
2021/09/11 02:04:38;;;;;;;8.10;7.13;;;20.60;88.40;;;;;;5084698;28;20098;-60
2021/09/11 02:07:04;;;;;;;12.43;7.18;;;20.50;88.50;;;;;;5052774;28;20387;-60
2021/09/11 02:09:31;;;;;;;9.90;8.10;;;20.50;88.50;;;;;;5069175;28;20107;-60
2021/09/11 02:11:56;;;;;;;13.75;8.75;;;20.50;88.60;;;;;;5085374;28;20118;-60
2021/09/11 02:14:22;;;;;;;11.35;8.30;;;20.50;88.70;;;;;;5087881;28;20127;-60
2021/09/11 02:16:47;;;;;;;10.82;8.02;;;20.50;88.70;;;;;;5089661;28;20462;-60
2021/09/11 02:19:13;;;;;;;9.25;7.97;;;20.50;88.80;;;;;;5084016;28;20540;-60
2021/09/11 02:21:39;;;;;;;11.60;8.48;;;20.50;88.90;;;;;;5077661;28;20028;-60
2021/09/11 02:24:05;;;;;;;12.77;8.85;;;20.50;88.90;;;;;;5095281;28;20195;-60
2021/09/11 02:26:30;;;;;;;11.77;8.63;;;20.40;89.00;;;;;;5094600;28;20031;-60
2021/09/11 02:28:56;;;;;;;11.80;7.85;;;20.40;89.00;;;;;;5090846;28;20058;-60
2021/09/11 02:31:21;;;;;;;11.10;7.75;;;20.40;89.10;;;;;;5085197;28;20062;-60
2021/09/11 02:33:49;;;;;;;9.30;7.90;;;20.40;89.20;;;;;;5075021;28;20016;-60
2021/09/11 02:36:15;;;;;;;12.70;8.38;;;20.40;89.20;;;;;;5067419;28;20347;-60
2021/09/11 02:38:41;;;;;;;9.52;7.50;;;20.40;89.40;;;;;;5089907;28;20032;-60
2021/09/11 02:41:07;;;;;;;9.10;6.82;;;20.40;89.30;;;;;;5081562;28;20078;-60
2021/09/11 02:43:32;;;;;;;12.82;7.82;;;20.40;89.20;;;;;;5091461;28;20016;-60
2021/09/11 02:45:58;;;;;;;9.18;7.00;;;20.40;89.20;;;;;;5075226;28;20056;-60
2021/09/11 02:48:23;;;;;;;9.40;7.30;;;20.40;89.20;;;;;;5089018;28;20509;-60
2021/09/11 02:50:49;;;;;;;12.13;6.88;;;20.40;89.20;;;;;;5059482;28;20037;-60
2021/09/11 02:53:14;;;;;;;9.95;7.18;;;20.40;89.20;;;;;;5090584;28;20035;-60
2021/09/11 02:55:40;;;;;;;13.18;6.70;;;20.30;89.20;;;;;;5077149;28;20036;-60
2021/09/11 02:58:05;;;;;;;7.70;6.95;;;20.30;89.40;;;;;;5068536;28;20480;-60
2021/09/11 03:00:31;;;;;;;8.85;6.68;;;20.30;89.60;;;;;;5082224;28;20582;-60
2021/09/11 03:02:56;;;;;;;8.40;7.03;;;20.30;89.70;;;;;;5085404;28;20491;-60
2021/09/11 03:05:22;;;;;;;9.65;6.60;;;20.30;89.80;;;;;;5082429;28;20028;-60
2021/09/11 03:07:47;;;;;;;9.88;7.18;;;20.30;90.00;;;;;;5071595;28;20107;-60
2021/09/11 03:10:13;;;;;;;11.35;7.38;;;20.30;90.00;;;;;;5083651;28;20106;-60
2021/09/11 03:12:38;;;;;;;9.60;7.07;;;20.30;90.00;;;;;;5079227;28;20749;-60
2021/09/11 03:15:05;;;;;;;14.70;7.80;;;20.30;90.10;;;;;;5071804;28;20506;-60
2021/09/11 03:17:30;;;;;;;20.15;8.20;;;20.20;90.00;;;;;;5085554;28;20113;-60
2021/09/11 03:19:56;;;;;;;22.80;8.35;;;20.20;90.00;;;;;;5083356;28;20143;-60
2021/09/11 03:22:21;;;;;;;19.20;8.35;;;20.20;90.00;;;;;;5086138;28;20690;-60
2021/09/11 03:24:47;;;;;;;17.43;8.87;;;20.20;90.10;;;;;;5026863;28;1061774;-60
2021/09/11 03:27:12;;;;;;;14.60;8.70;;;20.20;90.10;;;;;;5090612;28;20032;-60
2021/09/11 03:29:38;;;;;;;11.77;8.85;;;20.10;90.10;;;;;;5082154;28;20059;-60
2021/09/11 03:32:04;;;;;;;16.40;8.70;;;20.10;90.10;;;;;;5083748;28;20032;-61
2021/09/11 03:34:29;;;;;;;16.23;9.02;;;20.10;90.10;;;;;;5081727;28;20355;-60
2021/09/11 03:36:56;;;;;;;13.73;8.40;;;20.10;90.00;;;;;;5084422;28;20040;-60
2021/09/11 03:39:21;;;;;;;13.07;8.50;;;20.10;90.10;;;;;;5086195;28;20032;-60
2021/09/11 03:41:47;;;;;;;14.68;8.45;;;20.10;90.10;;;;;;5083437;28;20039;-60
2021/09/11 03:44:12;;;;;;;10.43;8.52;;;20.10;90.10;;;;;;5104598;28;20035;-60
2021/09/11 03:46:38;;;;;;;8.85;7.95;;;20.00;90.10;;;;;;5094928;28;20036;-60
2021/09/11 03:49:03;;;;;;;10.95;7.88;;;20.00;90.10;;;;;;5072993;28;20575;-60
2021/09/11 03:51:32;;;;;;;10.80;8.30;;;20.00;90.10;;;;;;5094722;28;20048;-60
2021/09/11 03:53:58;;;;;;;63.28;12.25;;;20.00;90.20;;;;;;5096621;28;20117;-60
2021/09/11 03:56:23;;;;;;;70.57;12.15;;;20.00;90.20;;;;;;5098853;28;20027;-60
2021/09/11 03:58:49;;;;;;;57.03;10.60;;;20.00;90.20;;;;;;5092483;28;20028;-60
2021/09/11 04:01:14;;;;;;;54.20;10.93;;;20.00;90.10;;;;;;5083470;28;20028;-60
2021/09/11 04:03:40;;;;;;;41.40;10.73;;;20.00;90.10;;;;;;5070622;28;20555;-60
2021/09/11 04:06:05;;;;;;;51.83;10.65;;;20.00;90.10;;;;;;5086337;28;20458;-60
2021/09/11 04:08:31;;;;;;;46.83;11.13;;;20.00;90.10;;;;;;5073587;28;20036;-60
2021/09/11 04:10:57;;;;;;;50.78;11.05;;;20.00;90.10;;;;;;5071458;28;20048;-60
2021/09/11 04:13:23;;;;;;;40.65;10.48;;;20.00;90.10;;;;;;5079541;28;20066;-60
2021/09/11 04:15:49;;;;;;;56.53;10.75;;;20.00;90.10;;;;;;5086165;28;20081;-60
2021/09/11 04:18:14;;;;;;;52.97;10.80;;;19.90;90.10;;;;;;5091160;28;20036;-60
2021/09/11 04:20:40;;;;;;;33.30;9.55;;;20.00;90.10;;;;;;5087965;28;20139;-59
2021/09/11 04:23:05;;;;;;;35.35;9.35;;;20.00;90.10;;;;;;5087859;28;20036;-60
2021/09/11 04:25:31;;;;;;;52.35;10.00;;;19.90;90.10;;;;;;5084231;28;20032;-60
2021/09/11 04:27:56;;;;;;;54.08;11.13;;;20.00;90.10;;;;;;5083739;28;20103;-61
2021/09/11 04:30:22;;;;;;;57.75;10.77;;;20.00;90.10;;;;;;5084570;28;20039;-60
2021/09/11 04:32:47;;;;;;;44.00;10.45;;;20.00;90.10;;;;;;5074748;28;20356;-60
2021/09/11 04:35:13;;;;;;;65.07;12.32;;;20.00;90.10;;;;;;5075533;28;20106;-60
2021/09/11 04:37:38;;;;;;;61.42;10.10;;;20.00;90.10;;;;;;5086462;28;20483;-60
2021/09/11 04:40:04;;;;;;;59.05;10.88;;;20.00;90.10;;;;;;5083657;28;20044;-60
2021/09/11 04:42:30;;;;;;;69.50;10.73;;;20.10;90.20;;;;;;5095488;28;20123;-60
2021/09/11 04:44:55;;;;;;;66.43;10.85;;;19.90;90.20;;;;;;5085435;28;20095;-60
2021/09/11 04:47:21;;;;;;;80.00;12.05;;;19.90;90.20;;;;;;5095816;28;20451;-59
2021/09/11 04:49:46;;;;;;;88.38;12.25;;;20.00;90.30;;;;;;5076312;28;20065;-60
2021/09/11 04:52:12;;;;;;;86.60;12.00;;;19.90;90.30;;;;;;5091194;28;20035;-60
2021/09/11 04:54:37;;;;;;;105.63;14.23;;;19.90;90.40;;;;;;5086646;28;20040;-60
2021/09/11 04:57:03;;;;;;;112.13;14.25;;;19.90;90.40;;;;;;5073887;28;20020;-60
2021/09/11 04:59:29;;;;;;;144.70;15.70;;;19.90;90.60;;;;;;5067952;28;20372;-60
2021/09/11 05:01:56;;;;;;;96.18;12.43;;;19.90;90.50;;;;;;5083883;28;20127;-60
2021/09/11 05:04:22;;;;;;;85.40;12.90;;;19.90;90.50;;;;;;5085961;28;20036;-60
2021/09/11 05:06:47;;;;;;;72.10;12.00;;;19.90;90.50;;;;;;5091767;28;20024;-60
2021/09/11 05:09:13;;;;;;;75.00;11.88;;;19.90;90.50;;;;;;5084897;28;20111;-60
2021/09/11 05:11:38;;;;;;;79.28;11.43;;;19.90;90.60;;;;;;5083126;28;20488;-60
2021/09/11 05:14:04;;;;;;;61.03;10.85;;;19.90;90.60;;;;;;5081963;28;20040;-60
2021/09/11 05:16:29;;;;;;;55.35;11.55;;;19.80;90.60;;;;;;5087743;28;20033;-60
2021/09/11 05:18:55;;;;;;;59.40;11.82;;;19.80;90.70;;;;;;5068337;28;20025;-60
2021/09/11 05:21:20;;;;;;;56.17;11.32;;;19.80;90.70;;;;;;5090394;28;20067;-60
2021/09/11 05:23:46;;;;;;;58.05;10.98;;;19.80;90.70;;;;;;5088877;28;20116;-60
2021/09/11 05:26:11;;;;;;;74.00;10.38;;;19.80;90.70;;;;;;5082328;28;20031;-60
2021/09/11 05:28:37;;;;;;;51.75;10.90;;;19.80;90.70;;;;;;5060495;28;20024;-60
2021/09/11 05:31:02;;;;;;;63.97;10.95;;;19.80;90.70;;;;;;5072400;28;20138;-60
2021/09/11 05:33:28;;;;;;;49.22;9.98;;;19.60;90.60;;;;;;5091819;28;20074;-60
2021/09/11 05:35:53;;;;;;;35.65;8.88;;;19.80;90.70;;;;;;5090319;28;20028;-60
2021/09/11 05:38:19;;;;;;;47.10;10.10;;;19.60;90.70;;;;;;5081068;28;20391;-60
2021/09/11 05:40:44;;;;;;;35.20;8.77;;;19.80;90.80;;;;;;5081213;28;20598;-60
2021/09/11 05:43:11;;;;;;;33.58;10.32;;;19.80;90.80;;;;;;5085789;28;20020;-60
2021/09/11 05:45:36;;;;;;;30.35;10.13;;;19.70;90.80;;;;;;5059775;28;20032;-60
2021/09/11 05:48:02;;;;;;;52.30;10.15;;;19.80;90.80;;;;;;5073628;28;20491;-60
2021/09/11 05:50:27;;;;;;;40.15;9.32;;;19.70;90.70;;;;;;5073388;28;20051;-60
2021/09/11 05:52:53;;;;;;;43.10;9.88;;;19.70;90.70;;;;;;5077628;28;20329;-60
2021/09/11 05:55:18;;;;;;;32.53;9.45;;;19.70;90.80;;;;;;5071870;28;20428;-60
2021/09/11 05:57:44;;;;;;;32.78;8.93;;;19.70;90.80;;;;;;5085320;28;20073;-60
2021/09/11 06:00:10;;;;;;;37.03;9.88;;;19.70;90.80;;;;;;5071167;28;20395;-60
2021/09/11 06:02:35;;;;;;;34.75;9.13;;;19.70;90.80;;;;;;5078579;28;20416;-60
2021/09/11 06:05:01;;;;;;;40.22;9.52;;;19.70;90.80;;;;;;5086744;28;20046;-60
2021/09/11 06:07:26;;;;;;;34.05;9.38;;;19.70;90.80;;;;;;5078069;28;20360;-60
2021/09/11 06:09:52;;;;;;;26.38;8.20;;;19.60;90.80;;;;;;5072709;28;20047;-60
2021/09/11 06:12:17;;;;;;;27.52;9.02;;;19.60;90.80;;;;;;5075573;28;20493;-60
2021/09/11 06:14:43;;;;;;;25.80;8.80;;;19.60;90.90;;;;;;5068648;28;20134;-60
2021/09/11 06:17:08;;;;;;;33.65;8.98;;;19.60;90.90;;;;;;5075871;28;20039;-60
2021/09/11 06:19:34;;;;;;;26.85;8.40;;;19.60;90.90;;;;;;5069634;28;20107;-60
2021/09/11 06:22:00;;;;;;;27.58;8.43;;;19.60;90.90;;;;;;5080525;28;20024;-60
2021/09/11 06:24:25;;;;;;;27.02;8.73;;;19.60;90.90;;;;;;5080349;28;20053;-60
2021/09/11 06:26:51;;;;;;;27.55;9.18;;;19.60;90.90;;;;;;5073502;28;20115;-60
2021/09/11 06:29:17;;;;;;;28.73;8.48;;;19.50;90.90;;;;;;5085743;28;20109;-60
2021/09/11 06:31:42;;;;;;;20.45;7.88;;;19.60;90.90;;;;;;5098509;28;20031;-60
2021/09/11 06:34:08;;;;;;;23.63;8.45;;;19.60;90.90;;;;;;5101148;28;20031;-60
2021/09/11 06:36:33;;;;;;;20.80;7.45;;;19.50;90.80;;;;;;5102215;28;20023;-60
2021/09/11 06:38:59;;;;;;;24.48;8.65;;;19.50;90.80;;;;;;5101003;28;20560;-60
2021/09/11 06:41:24;;;;;;;16.52;7.70;;;19.50;90.80;;;;;;5094310;28;20021;-60
2021/09/11 06:43:50;;;;;;;17.75;8.50;;;19.50;90.80;;;;;;5076597;28;20031;-60
2021/09/11 06:46:15;;;;;;;25.83;7.57;;;19.50;90.80;;;;;;5096419;28;20035;-60
2021/09/11 06:48:41;;;;;;;17.88;7.80;;;19.50;90.80;;;;;;5083354;28;20089;-62
2021/09/11 06:51:06;;;;;;;16.02;7.55;;;19.50;90.80;;;;;;5081391;28;20033;-60
2021/09/11 06:53:32;;;;;;;19.02;7.70;;;19.50;90.80;;;;;;5060964;28;20034;-60
2021/09/11 06:55:57;;;;;;;16.27;7.32;;;19.50;90.90;;;;;;5080818;28;20024;-60
2021/09/11 06:58:23;;;;;;;18.33;6.85;;;19.50;90.80;;;;;;5081659;28;20017;-62
2021/09/11 07:00:48;;;;;;;17.00;7.78;;;19.50;90.80;;;;;;5080105;28;20085;-62
2021/09/11 07:03:15;;;;;;;18.52;7.63;;;19.50;90.80;;;;;;5081101;28;20383;-62
2021/09/11 07:05:40;;;;;;;11.93;7.60;;;19.50;90.80;;;;;;5084103;28;20032;-63
2021/09/11 07:08:06;;;;;;;19.85;7.68;;;19.50;90.80;;;;;;5062562;28;20032;-62
2021/09/11 07:10:31;;;;;;;13.45;7.93;;;19.60;90.80;;;;;;5084604;28;20459;-63
2021/09/11 07:12:57;;;;;;;14.02;7.60;;;19.50;90.80;;;;;;5061460;28;20035;-62
2021/09/11 07:15:22;;;;;;;16.27;7.55;;;19.60;90.80;;;;;;5086706;28;20459;-63
2021/09/11 07:17:48;;;;;;;17.65;7.60;;;19.50;90.80;;;;;;5082001;28;20032;-63
2021/09/11 07:20:13;;;;;;;16.23;7.07;;;19.60;90.90;;;;;;5087345;28;20027;-63
2021/09/11 07:22:39;;;;;;;11.30;7.57;;;19.50;90.80;;;;;;5061529;28;20253;-63
2021/09/11 07:25:05;;;;;;;12.65;6.93;;;19.50;90.80;;;;;;5064964;28;20032;-63
2021/09/11 07:27:30;;;;;;;12.65;7.75;;;19.50;90.90;;;;;;5080063;28;20032;-62
2021/09/11 07:29:59;;;;;;;15.27;7.65;;;19.50;90.90;;;;;;5087972;28;20110;-59
2021/09/11 07:32:26;;;;;;;11.60;7.20;;;19.60;90.90;;;;;;5080578;28;20021;-60
2021/09/11 07:34:51;;;;;;;10.02;6.75;;;19.60;90.90;;;;;;5081663;28;20055;-60
2021/09/11 07:37:17;;;;;;;16.35;7.18;;;19.60;90.90;;;;;;5082840;28;20407;-60
2021/09/11 07:39:42;;;;;;;9.88;7.55;;;19.60;90.90;;;;;;5079333;28;20456;-60
2021/09/11 07:42:08;;;;;;;8.73;6.95;;;19.60;91.00;;;;;;5085637;28;20463;-60
2021/09/11 07:44:33;;;;;;;8.63;7.53;;;19.60;91.00;;;;;;5096489;28;20523;-60
2021/09/11 07:46:59;;;;;;;19.08;7.40;;;19.60;91.00;;;;;;5101309;28;20654;-60
2021/09/11 07:49:24;;;;;;;11.13;7.32;;;19.60;91.00;;;;;;5098044;28;20119;-60
2021/09/11 07:51:50;;;;;;;9.98;6.97;;;19.60;91.10;;;;;;5098843;28;20019;-60
2021/09/11 07:54:16;;;;;;;12.13;7.57;;;19.60;91.30;;;;;;5080867;28;20034;-60
2021/09/11 07:56:41;;;;;;;8.75;7.15;;;19.60;91.10;;;;;;5050066;28;20035;-60
2021/09/11 07:59:07;;;;;;;15.57;7.45;;;19.60;91.00;;;;;;5066304;28;20037;-61
2021/09/11 08:01:32;;;;;;;11.00;7.43;;;19.60;91.00;;;;;;5080370;28;20051;-60
2021/09/11 08:03:58;;;;;;;11.35;6.78;;;19.60;91.00;;;;;;5068325;28;20080;-60
2021/09/11 08:06:24;;;;;;;11.75;7.88;;;19.70;91.20;;;;;;5069650;28;20131;-61
2021/09/11 08:08:49;;;;;;;13.25;7.63;;;19.70;91.30;;;;;;5068957;28;20407;-60
2021/09/11 08:11:16;;;;;;;14.55;8.35;;;19.70;91.30;;;;;;5084757;28;20120;-60
2021/09/11 08:13:42;;;;;;;14.00;7.72;;;19.70;91.30;;;;;;5046384;28;20167;-60
2021/09/11 08:16:07;;;;;;;16.63;8.55;;;19.70;91.30;;;;;;5058626;28;20051;-60
2021/09/11 08:18:33;;;;;;;33.97;9.23;;;19.70;91.40;;;;;;5065494;28;20024;-60
2021/09/11 08:20:58;;;;;;;34.88;8.68;;;19.70;91.70;;;;;;5065323;28;20016;-60
2021/09/11 08:23:24;;;;;;;75.93;12.98;;;19.80;91.70;;;;;;5074769;28;20032;-60
2021/09/11 08:25:50;;;;;;;25.60;9.13;;;19.80;91.70;;;;;;5063694;28;20035;-60
2021/09/11 08:28:16;;;;;;;42.08;11.40;;;19.80;91.70;;;;;;5067537;28;20028;-60
2021/09/11 08:30:41;;;;;;;47.65;11.82;;;19.80;91.80;;;;;;5086874;28;20031;-60
2021/09/11 08:33:09;;;;;;;39.70;10.80;;;19.90;92.00;;;;;;5062667;28;20024;-60
2021/09/11 08:35:35;;;;;;;61.40;13.57;;;19.90;92.00;;;;;;5060678;28;20032;-60
2021/09/11 08:38:00;;;;;;;60.08;12.63;;;19.90;92.20;;;;;;5088921;28;20040;-62
2021/09/11 08:40:26;;;;;;;62.15;14.52;;;19.90;92.40;;;;;;5080617;28;20028;-63
2021/09/11 08:42:51;;;;;;;70.60;14.63;;;19.90;92.40;;;;;;5089684;28;20023;-63
2021/09/11 08:45:17;;;;;;;59.25;14.18;;;20.00;92.40;;;;;;5060406;28;20498;-62
2021/09/11 08:47:46;;;;;;;86.60;16.45;;;20.00;92.40;;;;;;5069262;28;20036;-63
2021/09/11 08:50:12;;;;;;;72.28;15.05;;;20.10;92.60;;;;;;5065452;28;20071;-63
2021/09/11 08:52:41;;;;;;;95.53;15.77;;;20.10;92.50;;;;;;5071978;28;20150;-63
2021/09/11 08:55:07;;;;;;;97.78;15.57;;;20.20;92.40;;;;;;5087284;28;20107;-63
2021/09/11 08:57:33;;;;;;;80.50;15.18;;;20.20;92.50;;;;;;5071344;28;20035;-60
2021/09/11 08:59:59;;;;;;;83.63;17.13;;;20.20;92.50;;;;;;5067644;28;20024;-60
2021/09/11 09:02:25;;;;;;;77.68;15.15;;;20.20;92.40;;;;;;5069242;28;20036;-60
2021/09/11 09:04:58;;;;;;;87.60;16.92;;;20.30;92.30;;;;;;5086283;28;20043;-60
2021/09/11 09:07:30;;;;;;;109.70;16.75;;;20.30;92.20;;;;;;5091063;28;20545;-60
2021/09/11 09:10:09;;;;;;;66.13;15.43;;;20.30;92.20;;;;;;5088696;28;20434;-60
2021/09/11 09:12:36;;;;;;;202.95;23.10;;;20.40;92.10;;;;;;5079026;28;20438;-61
2021/09/11 09:15:21;;;;;;;87.00;16.90;;;20.40;92.00;;;;;;5072164;28;20027;-60
2021/09/11 09:17:54;;;;;;;99.35;16.23;;;20.40;91.90;;;;;;5083242;28;20138;-60
2021/09/11 09:20:20;;;;;;;113.45;17.90;;;20.40;92.10;;;;;;5053099;28;20428;-60
2021/09/11 09:22:50;;;;;;;128.80;19.35;;;20.40;91.80;;;;;;5088761;28;20073;-60
2021/09/11 09:25:27;;;;;;;77.88;16.33;;;20.50;91.80;;;;;;5038454;28;20040;-60
2021/09/11 09:28:07;;;;;;;81.85;16.88;;;20.50;91.70;;;;;;5086158;28;20028;-60
2021/09/11 09:30:42;;;;;;;96.10;15.68;;;20.50;91.60;;;;;;5078480;28;20031;-60
2021/09/11 09:33:17;;;;;;;122.35;18.10;;;20.50;91.50;;;;;;5068709;28;20046;-60
2021/09/11 09:35:42;;;;;;;99.20;16.33;;;20.60;91.40;;;;;;5063514;28;20818;-60
2021/09/11 09:38:09;;;;;;;116.13;17.20;;;20.60;91.30;;;;;;5074272;28;20112;-60
2021/09/11 09:40:43;;;;;;;113.85;15.98;;;20.60;91.30;;;;;;5064481;28;20048;-60
2021/09/11 09:43:09;;;;;;;81.78;14.85;;;20.60;91.20;;;;;;5071062;28;20032;-61
2021/09/11 09:45:35;;;;;;;105.00;17.40;;;20.70;91.10;;;;;;5068306;28;20028;-60
2021/09/11 09:48:10;;;;;;;115.10;16.60;;;20.70;91.00;;;;;;5085692;28;20062;-60
2021/09/11 09:50:38;;;;;;;90.25;15.43;;;20.70;91.00;;;;;;5058197;28;20157;-61
2021/09/11 09:53:03;;;;;;;81.50;14.32;;;20.70;91.00;;;;;;5064862;28;20031;-60
2021/09/11 09:55:29;;;;;;;99.88;16.48;;;20.80;90.90;;;;;;5086899;28;21316;-60
2021/09/11 09:57:55;;;;;;;106.40;16.67;;;20.80;90.90;;;;;;5090774;28;20345;-61
2021/09/11 10:00:20;;;;;;;85.95;15.80;;;20.80;90.90;;;;;;5078477;28;21314;-60
2021/09/11 10:02:46;;;;;;;95.65;14.60;;;20.80;90.70;;;;;;5084984;28;20024;-60
2021/09/11 10:05:12;;;;;;;79.40;14.73;;;20.90;90.60;;;;;;5078864;28;20032;-60
2021/09/11 10:07:38;;;;;;;87.85;15.75;;;20.90;90.50;;;;;;5076004;28;20024;-60
2021/09/11 10:10:04;;;;;;;92.35;14.35;;;20.90;90.40;;;;;;5080913;28;20024;-60
2021/09/11 10:12:32;;;;;;;62.13;12.80;;;20.90;90.40;;;;;;5067314;28;20024;-61
2021/09/11 10:15:24;;;;;;;80.40;13.10;;;21.00;90.30;;;;;;5058285;28;20039;-60
2021/09/11 10:17:50;;;;;;;97.15;13.45;;;21.00;90.30;;;;;;5062228;28;20098;-60
2021/09/11 10:20:15;;;;;;;75.32;12.90;;;21.00;90.20;;;;;;5064558;28;20423;-61
2021/09/11 10:23:02;;;;;;;82.13;13.23;;;21.00;90.10;;;;;;5093675;28;20043;-61
2021/09/11 10:25:43;;;;;;;98.80;13.40;;;21.10;89.90;;;;;;5064729;28;20036;-60
2021/09/11 10:28:22;;;;;;;73.00;12.68;;;21.10;89.70;;;;;;5082105;28;20035;-61
2021/09/11 10:31:08;;;;;;;71.22;13.75;;;21.20;89.60;;;;;;5057206;28;20051;-61
2021/09/11 10:33:39;;;;;;;;;;;21.20;89.50;;;;;;5070120;28;20028;-60
2021/09/11 10:36:05;;;;;;;68.30;13.27;;;21.20;88.80;;;;;;5087524;28;19911;-61
2021/09/11 10:38:40;;;;;;;67.43;11.63;;;21.30;88.80;;;;;;5076609;28;20577;-61
2021/09/11 10:41:16;;;;;;;73.82;12.02;;;21.30;88.60;;;;;;5077649;28;20063;-62
2021/09/11 10:44:05;;;;;;;60.10;10.77;;;21.30;88.00;;;;;;5082247;28;20028;-62
2021/09/11 10:46:57;;;;;;;80.50;11.88;;;21.40;87.50;;;;;;5080322;28;20032;-63
2021/09/11 10:49:29;;;;;;;64.05;13.18;;;21.40;87.70;;;;;;5076950;28;20040;-62
2021/09/11 10:52:11;;;;;;;44.88;10.93;;;21.40;87.50;;;;;;5089272;28;20023;-62
2021/09/11 10:54:40;;;;;;;45.42;10.63;;;21.50;87.40;;;;;;5060122;28;20052;-62
2021/09/11 10:57:09;;;;;;;63.42;11.88;;;21.40;87.20;;;;;;5097375;28;21309;-62
2021/09/11 10:59:41;;;;;;;59.72;10.77;;;21.50;86.80;;;;;;5058841;28;20024;-62
2021/09/11 11:02:19;;;;;;;67.03;10.95;;;21.50;86.60;;;;;;5084520;28;20099;-60
2021/09/11 11:04:48;;;;;;;66.88;11.48;;;21.50;86.40;;;;;;5091482;28;20352;-60
2021/09/11 11:07:27;;;;;;;54.92;9.07;;;21.60;86.30;;;;;;5097994;28;20378;-61
2021/09/11 11:10:00;;;;;;;51.90;9.95;;;21.60;86.00;;;;;;5082230;28;20180;-60
2021/09/11 11:12:37;;;;;;;54.28;8.90;;;21.60;85.50;;;;;;5070966;28;20028;-61
2021/09/11 11:15:05;;;;;;;54.92;8.25;;;21.60;85.20;;;;;;5083595;28;20084;-60
2021/09/11 11:17:30;;;;;;;61.42;9.35;;;21.70;85.00;;;;;;5088088;28;20114;-61
2021/09/11 11:19:57;;;;;;;52.30;9.23;;;21.70;84.90;;;;;;5079806;28;20024;-61
2021/09/11 11:22:38;;;;;;;35.28;7.50;;;21.80;84.70;;;;;;5079594;28;20025;-61
2021/09/11 11:25:05;;;;;;;47.28;7.78;;;21.80;83.80;;;;;;5064694;28;20044;-60
2021/09/11 11:27:31;;;;;;;31.85;7.78;;;21.90;83.20;;;;;;5085298;28;20511;-60
2021/09/11 11:29:57;;;;;;;42.13;8.02;;;21.90;82.90;;;;;;5083636;28;20020;-60
2021/09/11 11:32:27;;;;;;;41.47;7.35;;;22.00;82.80;;;;;;5094912;28;20020;-60
2021/09/11 11:34:59;;;;;;;34.83;7.15;;;22.00;82.50;;;;;;5102053;28;20024;-61
2021/09/11 11:37:28;;;;;;;34.78;7.13;;;22.10;82.20;;;;;;5061888;28;20038;-61
2021/09/11 11:39:54;;;;;;;33.97;6.57;;;22.10;82.00;;;;;;5089258;28;20016;-59
2021/09/11 11:42:25;;;;;;;49.97;7.30;;;22.20;81.80;;;;;;5077982;28;20027;-61
2021/09/11 11:44:52;;;;;;;26.90;6.35;;;22.20;81.50;;;;;;5095098;28;20058;-61
2021/09/11 11:47:31;;;;;;;33.67;7.53;;;22.30;81.40;;;;;;5077457;28;20036;-60
2021/09/11 11:49:56;;;;;;;31.65;6.65;;;22.30;81.10;;;;;;5054625;28;20035;-60
2021/09/11 11:52:22;;;;;;;32.13;6.28;;;22.40;81.00;;;;;;5083509;28;20023;-60
2021/09/11 11:54:48;;;;;;;32.78;7.15;;;22.40;80.90;;;;;;5072550;28;20028;-61
2021/09/11 11:57:16;;;;;;;35.95;6.80;;;22.40;80.70;;;;;;5059844;28;20435;-61
2021/09/11 11:59:42;;;;;;;28.55;6.18;;;22.50;80.70;;;;;;5066503;28;20115;-60
2021/09/11 12:02:18;;;;;;;24.38;6.53;;;22.50;80.40;;;;;;5071568;28;20099;-63
2021/09/11 12:04:44;;;;;;;22.80;5.65;;;22.60;80.10;;;;;;5093047;28;20020;-61
2021/09/11 12:07:09;;;;;;;21.77;5.60;;;22.70;80.00;;;;;;5096991;28;20058;-60
2021/09/11 12:09:35;;;;;;;32.88;6.57;;;22.70;79.90;;;;;;5057906;28;20196;-60
2021/09/11 12:12:11;;;;;;;26.40;5.38;;;22.80;79.70;;;;;;5082701;28;20119;-60
2021/09/11 12:14:37;;;;;;;28.55;5.65;;;22.80;79.90;;;;;;5073025;28;20107;-61
2021/09/11 12:17:02;;;;;;;25.23;5.50;;;22.80;79.20;;;;;;5077867;28;20099;-60
2021/09/11 12:19:28;;;;;;;34.92;6.15;;;22.90;78.90;;;;;;5075429;28;20358;-61
2021/09/11 12:21:53;;;;;;;20.00;5.13;;;23.00;78.80;;;;;;5053792;28;20107;-60
2021/09/11 12:24:29;;;;;;;16.35;4.80;;;23.00;78.50;;;;;;5068212;28;20340;-61
2021/09/11 12:27:11;;;;;;;20.13;5.28;;;23.00;77.70;;;;;;5063992;28;20029;-61
2021/09/11 12:29:36;;;;;;;25.35;5.50;;;23.00;78.00;;;;;;5091937;28;20051;-61
2021/09/11 12:32:05;;;;;;;27.13;5.20;;;23.00;77.70;;;;;;5069185;28;20036;-60
2021/09/11 12:34:31;;;;;;;31.77;5.57;;;23.10;77.60;;;;;;5074383;28;20429;-60